Time;durP1;ratioP1;P1;durP2;ratioP2;P2;SDS_P1;SDS_P2;PMS_P1;PMS_P2;Temp;Humidity;BMP_temperature;BMP_pressure;BME280_temperature;BME280_humidity;BME280_pressure;Samples;Min_cycle;Max_cycle;Signal;HPM_P1;HPM_P2
2022/12/22 03:25:55;;;;;;;27.50;11.00;;;;;;;4.06;100.00;98343.47;4225649;34;20051;-73
2022/12/22 03:28:23;;;;;;;25.12;10.90;;;;;;;4.36;100.00;98344.31;4226069;33;20055;-73
2022/12/22 03:30:56;;;;;;;29.37;11.27;;;;;;;4.31;100.00;98338.03;4226894;33;20035;-73
2022/12/22 03:33:23;;;;;;;26.15;13.05;;;;;;;4.47;100.00;98333.94;4226926;33;20392;-73
2022/12/22 03:35:49;;;;;;;26.67;12.43;;;;;;;4.23;100.00;98323.16;4226663;34;20054;-73
2022/12/22 03:38:15;;;;;;;33.75;12.70;;;;;;;4.15;100.00;98331.47;4224045;33;20038;-73
2022/12/22 03:40:42;;;;;;;27.95;12.63;;;;;;;4.35;100.00;98321.34;4226644;33;20966;-73
2022/12/22 03:48:42;;;;;;;26.77;12.25;;;;;;;4.19;100.00;98290.00;4226376;33;20204;-73
2022/12/22 03:51:10;;;;;;;27.80;11.65;;;;;;;4.59;100.00;98313.41;4226545;33;20059;-73
2022/12/22 03:53:36;;;;;;;28.17;12.43;;;;;;;4.60;100.00;98306.25;4232388;33;20412;-73
2022/12/22 03:56:03;;;;;;;28.70;13.95;;;;;;;4.64;100.00;98310.91;4222350;33;20347;-73
2022/12/22 03:58:29;;;;;;;21.98;11.30;;;;;;;4.12;100.00;98299.97;4223699;33;20051;-74
2022/12/22 04:01:06;;;;;;;26.15;12.73;;;;;;;3.86;100.00;98275.28;4223779;33;20035;-74
2022/12/22 04:03:33;;;;;;;18.95;9.73;;;;;;;4.73;100.00;98306.84;4223966;33;20406;-73
2022/12/22 04:05:59;;;;;;;27.05;11.52;;;;;;;4.30;100.00;98310.56;4221913;33;20064;-74
2022/12/22 04:08:25;;;;;;;25.27;12.88;;;;;;;4.37;100.00;98297.12;4223494;33;20077;-74
2022/12/22 04:13:37;;;;;;;31.02;13.68;;;;;;;4.50;100.00;98296.13;4224930;33;20035;-74
2022/12/22 04:16:04;;;;;;;29.73;13.38;;;;;;;4.02;100.00;98281.84;4227026;33;20039;-74
2022/12/22 04:18:31;;;;;;;33.13;14.85;;;;;;;4.11;100.00;98285.00;4230272;33;21044;-74
2022/12/22 04:20:57;;;;;;;27.73;12.88;;;;;;;4.35;100.00;98284.03;4230975;33;20055;-73
2022/12/22 04:23:24;;;;;;;34.92;15.95;;;;;;;4.56;100.00;98276.53;4229565;33;20023;-72
2022/12/22 04:25:50;;;;;;;24.73;13.38;;;;;;;4.32;100.00;98270.34;4215767;34;20215;-72
2022/12/22 04:28:16;;;;;;;27.55;13.70;;;;;;;4.12;100.00;98278.66;4212100;34;20051;-73
2022/12/22 04:30:43;;;;;;;25.60;12.65;;;;;;;4.52;100.00;98268.19;4213439;34;20048;-73
2022/12/22 04:33:09;;;;;;;25.40;10.85;;;;;;;3.82;100.00;98220.84;4216985;34;20031;-72
2022/12/22 04:35:36;;;;;;;24.60;11.35;;;;;;;4.28;100.00;98251.34;4226571;33;20051;-73
2022/12/22 04:38:02;;;;;;;27.90;11.98;;;;;;;4.09;100.00;98273.75;4224275;33;20046;-73
2022/12/22 04:40:29;;;;;;;26.42;12.10;;;;;;;3.88;100.00;98225.28;4225457;33;20978;-73
2022/12/22 04:42:55;;;;;;;32.80;12.73;;;;;;;4.00;100.00;98255.44;4224524;33;20082;-72
2022/12/22 04:45:22;;;;;;;25.02;12.32;;;;;;;3.95;100.00;98220.66;4226385;34;20039;-73
2022/12/22 04:47:48;;;;;;;26.92;11.52;;;;;;;4.43;100.00;98266.91;4226083;33;20386;-71
2022/12/22 04:50:14;;;;;;;23.02;10.63;;;;;;;4.07;100.00;98266.00;4224416;33;20047;-75
2022/12/22 04:52:41;;;;;;;28.73;13.10;;;;;;;3.78;100.00;98251.62;4225591;33;20078;-73
2022/12/22 04:55:08;;;;;;;29.02;12.82;;;;;;;3.96;100.00;98232.16;4233818;33;20069;-72
2022/12/22 04:57:35;;;;;;;28.70;13.43;;;;;;;4.14;100.00;98271.22;4239165;33;20234;-72
2022/12/22 05:00:03;;;;;;;29.17;11.70;;;;;;;4.11;100.00;98258.34;4238097;33;20074;-73
2022/12/22 05:02:29;;;;;;;23.45;11.90;;;;;;;4.14;100.00;98255.25;4239360;33;20374;-72
2022/12/22 05:04:55;;;;;;;26.70;11.95;;;;;;;4.03;100.00;98280.00;4239580;33;20101;-73
2022/12/22 05:07:22;;;;;;;27.92;12.32;;;;;;;4.02;100.00;98233.91;4239926;33;20486;-73
2022/12/22 05:09:48;;;;;;;27.52;12.40;;;;;;;4.25;100.00;98259.78;4238156;33;20081;-72
2022/12/22 05:15:00;;;;;;;35.28;13.15;;;;;;;4.11;100.00;98253.03;4239740;33;20068;-74
2022/12/22 05:17:26;;;;;;;27.30;12.88;;;;;;;4.12;100.00;98252.81;4239486;33;20042;-73
2022/12/22 05:19:53;;;;;;;26.65;12.48;;;;;;;4.13;100.00;98259.78;4237103;33;20050;-73
2022/12/22 05:22:19;;;;;;;27.60;11.65;;;;;;;4.11;100.00;98261.03;4239044;33;20054;-73
2022/12/22 05:24:46;;;;;;;22.95;12.15;;;;;;;3.86;100.00;98232.69;4241536;33;20084;-73
2022/12/22 05:27:12;;;;;;;29.27;12.65;;;;;;;4.24;100.00;98278.69;4239477;33;20389;-73
2022/12/22 05:29:39;;;;;;;30.30;12.80;;;;;;;4.14;100.00;98260.56;4236334;33;20069;-72
2022/12/22 05:32:05;;;;;;;30.95;14.70;;;;;;;4.07;100.00;98270.50;4207783;34;20044;-73
2022/12/22 05:34:31;;;;;;;31.95;13.05;;;;;;;3.87;100.00;98234.28;4166895;34;20077;-73
2022/12/22 05:36:58;;;;;;;29.55;12.90;;;;;;;4.14;100.00;98271.22;4168550;34;20156;-73
2022/12/22 05:39:24;;;;;;;21.17;12.45;;;;;;;4.27;100.00;98257.72;4168372;34;20508;-73
2022/12/22 05:41:50;;;;;;;23.25;11.18;;;;;;;4.03;100.00;98238.19;4166980;34;20366;-71
2022/12/22 05:44:17;;;;;;;27.85;13.70;;;;;;;3.89;100.00;98226.88;4162385;34;20058;-72
2022/12/22 05:46:43;;;;;;;26.33;11.75;;;;;;;4.28;100.00;98251.34;4159958;34;20044;-73
2022/12/22 05:49:10;;;;;;;26.90;12.00;;;;;;;4.52;100.00;98267.41;4154590;34;20036;-73
2022/12/22 05:51:36;;;;;;;26.20;10.43;;;;;;;4.29;100.00;98234.31;4147866;34;20098;-73
2022/12/22 05:54:03;;;;;;;19.85;10.38;;;;;;;4.16;100.00;98263.81;4139685;34;20056;-71
2022/12/22 05:56:29;;;;;;;26.27;12.50;;;;;;;4.34;100.00;98271.75;4140792;34;20086;-73
2022/12/22 05:58:56;;;;;;;27.45;12.30;;;;;;;4.57;100.00;98259.53;4137303;34;20464;-73
2022/12/22 06:01:22;;;;;;;28.40;12.35;;;;;;;4.32;100.00;98268.53;4139090;34;20079;-73
2022/12/22 06:03:48;;;;;;;28.48;11.32;;;;;;;4.17;100.00;98273.44;4145257;34;20086;-72
2022/12/22 06:06:15;;;;;;;25.40;11.77;;;;;;;4.31;100.00;98272.22;4146913;34;20129;-73
2022/12/22 06:08:41;;;;;;;23.38;11.12;;;;;;;4.30;100.00;98235.94;4113569;34;20050;-73
2022/12/22 06:11:07;;;;;;;22.08;11.32;;;;;;;4.61;100.00;98260.69;4143327;34;20224;-72
2022/12/22 06:13:34;;;;;;;24.60;12.10;;;;;;;4.61;100.00;98263.37;4178266;34;20123;-72
2022/12/22 06:16:00;;;;;;;27.80;9.90;;;;;;;4.27;100.00;98262.22;4179483;34;20032;-73
2022/12/22 06:18:33;;;;;;;26.23;11.35;;;;;;;4.24;100.00;98255.50;4177449;34;20992;-74
2022/12/22 06:21:00;;;;;;;25.62;11.43;;;;;;;4.35;100.00;98254.72;4201739;34;20061;-73
2022/12/22 06:23:26;;;;;;;20.62;11.05;;;;;;;4.25;100.00;98257.13;4205555;34;20038;-72
2022/12/22 06:25:58;;;;;;;21.75;10.48;;;;;;;4.18;100.00;98225.25;4194456;34;20535;-73
2022/12/22 06:28:25;;;;;;;;;;;;;;;4.57;100.00;98270.19;4192544;34;20062;-73
2022/12/22 06:30:51;;;;;;;;;;;;;;;4.49;100.00;98262.53;4194680;34;19952;-73
2022/12/22 06:33:17;;;;;;;;;;;;;;;4.36;100.00;98259.00;4195566;34;20263;-73
2022/12/22 06:35:44;;;;;;;;;;;;;;;4.45;100.00;98256.00;4197797;34;19935;-74
2022/12/22 06:38:10;;;;;;;;;;;;;;;4.47;100.00;98259.28;4194496;34;19943;-73
2022/12/22 06:40:36;;;;;;;;;;;;;;;4.39;100.00;98256.91;4222088;34;20048;-74
2022/12/22 06:45:36;;;;;;;;;;;;;;;4.32;100.00;98254.34;4226293;34;19942;-74
2022/12/22 06:48:02;;;;;;;;;;;;;;;4.48;100.00;98251.06;4225165;34;19946;-73
2022/12/22 06:50:28;;;;;;;;;;;;;;;4.32;100.00;98249.88;4224334;34;19985;-73
2022/12/22 06:52:55;;;;;;;;;;;;;;;4.34;100.00;98239.78;4224913;34;19975;-73
2022/12/22 06:55:21;;;;;;;;;;;;;;;4.55;100.00;98243.75;4225700;34;19934;-74
2022/12/22 06:57:48;;;;;;;;;;;;;;;4.45;100.00;98245.34;4238412;33;19953;-73
2022/12/22 07:00:14;;;;;;;;;;;;;;;4.01;100.00;98245.59;4238563;33;20261;-72
2022/12/22 07:02:40;;;;;;;;;;;;;;;4.07;100.00;98247.34;4236415;33;19950;-74
2022/12/22 07:05:06;;;;;;;;;;;;;;;4.32;100.00;98236.53;4239408;33;19945;-73
2022/12/22 07:07:35;;;;;;;;;;;;;;;4.32;100.00;98236.53;4237257;33;19998;-72
2022/12/22 07:10:06;;;;;;;;;;;;;;;4.33;100.00;98248.81;4238945;33;19972;-75
2022/12/22 07:12:34;;;;;;;;;;;;;;;4.17;100.00;98238.81;4237357;33;19941;-72
2022/12/22 07:15:01;;;;;;;;;;;;;;;4.19;100.00;98247.37;4225946;34;19993;-74
2022/12/22 07:17:27;;;;;;;;;;;;;;;4.43;100.00;98236.78;4223573;34;19937;-73
2022/12/22 07:19:54;;;;;;;;;;;;;;;4.16;100.00;98242.50;4226784;34;20001;-73
2022/12/22 07:22:32;;;;;;;;;;;;;;;4.36;100.00;98237.69;4225342;34;20307;-73
2022/12/22 07:25:01;;;;;;;;;;;;;;;4.26;100.00;98248.09;4225780;34;19967;-74
2022/12/22 07:27:31;;;;;;;;;;;;;;;4.14;100.00;98247.25;4225502;34;19971;-73
2022/12/22 07:29:59;;;;;;;;;;;;;;;4.52;100.00;98246.06;4211547;34;20406;-74
2022/12/22 07:32:28;;;;;;;;;;;;;;;4.40;100.00;98240.69;4197797;34;20054;-72
2022/12/22 07:34:56;;;;;;;;;;;;;;;4.58;100.00;98239.81;4199159;34;19972;-74
2022/12/22 07:37:22;;;;;;;;;;;;;;;4.46;100.00;98226.47;4197797;34;19950;-75
2022/12/22 07:39:48;;;;;;;;;;;;;;;4.46;100.00;98221.12;4196462;34;20425;-74
2022/12/22 07:47:39;;;;;;;;;;;;;;;4.39;100.00;98206.28;4203474;34;19990;-75
2022/12/22 07:50:24;;;;;;;;;;;;;;;4.52;100.00;98206.88;4193604;34;21135;-74
2022/12/22 07:52:51;;;;;;;;;;;;;;;4.50;100.00;98205.47;4193942;34;19962;-74
2022/12/22 07:55:18;;;;;;;;;;;;;;;4.70;100.00;98195.28;4192819;34;20314;-74
2022/12/22 07:57:44;;;;;;;;;;;;;;;4.88;100.00;98186.37;4193407;34;20358;-74
2022/12/22 08:00:11;;;;;;;;;;;;;;;4.55;100.00;98189.63;4192678;34;19974;-74
2022/12/22 08:02:38;;;;;;;;;;;;;;;4.73;100.00;98189.50;4192676;34;20011;-74
2022/12/22 08:05:05;;;;;;;;;;;;;;;4.77;100.00;98191.69;4194062;34;19951;-74
2022/12/22 08:07:31;;;;;;;;;;;;;;;5.06;100.00;98188.09;4203777;34;19944;-74
2022/12/22 08:09:57;;;;;;;;;;;;;;;4.90;100.00;98194.16;4225054;34;19940;-74
2022/12/22 08:12:24;;;;;;;;;;;;;;;4.96;100.00;98195.06;4223599;34;19950;-74
2022/12/22 08:14:50;;;;;;;;;;;;;;;5.03;100.00;98185.09;4224020;34;20041;-74
2022/12/22 08:17:17;;;;;;;;;;;;;;;4.78;100.00;98186.13;4224740;34;19946;-74
2022/12/22 08:19:43;;;;;;;;;;;;;;;4.84;100.00;98181.75;4224744;34;19944;-73
2022/12/22 08:22:11;;;;;;;;;;;;;;;4.97;100.00;98189.50;4210942;34;19939;-74
2022/12/22 08:24:37;;;;;;;;;;;;;;;4.88;100.00;98197.03;4199414;34;19957;-74
2022/12/22 08:28:07;;;;;;;;;;;;;;;5.00;100.00;98178.34;4443900;32;19958;-76
2022/12/22 08:30:40;;;;;;;;;;;;;;;5.00;100.00;98178.34;4435112;32;20065;-75
2022/12/22 08:33:06;;;;;;;;;;;;;;;5.15;100.00;98185.84;4427372;32;19968;-75
2022/12/22 08:35:33;;;;;;;;;;;;;;;5.08;100.00;98180.66;4396010;32;20005;-75
2022/12/22 08:38:05;;;;;;;;;;;;;;;4.98;100.00;98183.12;4398201;32;19986;-76
2022/12/22 08:40:32;;;;;;;;;;;;;;;5.18;100.00;98179.25;4396553;32;19939;-76
2022/12/22 08:43:01;;;;;;;;;;;;;;;5.14;100.00;98170.91;4396092;32;19951;-75
2022/12/22 08:45:28;;;;;;;;;;;;;;;5.33;100.00;98163.56;4397133;32;19992;-75
2022/12/22 08:47:54;;;;;;;;;;;;;;;5.32;100.00;98175.28;4395232;32;20006;-76
2022/12/22 08:50:20;;;;;;;;;;;;;;;5.67;100.00;98171.66;4408001;32;19965;-75
2022/12/22 08:52:47;;;;;;;;;;;;;;;5.73;100.00;98168.03;4366240;32;19936;-76
2022/12/22 08:55:13;;;;;;;;;;;;;;;5.30;100.00;98161.34;4374877;32;19949;-75
2022/12/22 08:57:39;;;;;;;;;;;;;;;4.99;100.00;98158.03;4378663;32;20349;-74
2022/12/22 09:00:07;;;;;;;;;;;;;;;5.31;100.00;98162.97;4381255;32;19965;-74
2022/12/22 09:02:34;;;;;;;;;;;;;;;5.38;100.00;98158.31;4380265;32;20367;-74
2022/12/22 09:05:00;;;;;;;;;;;;;;;5.33;100.00;98160.88;4380977;32;19955;-76
2022/12/22 09:07:27;;;;;;;;;;;;;;;5.32;100.00;98153.91;4343659;33;19932;-76
2022/12/22 09:09:53;;;;;;;;;;;;;;;5.64;100.00;98150.78;4349331;33;19951;-76
2022/12/22 09:12:19;;;;;;;;;;;;;;;5.75;100.00;98152.59;4370606;32;19988;-76
2022/12/22 09:14:46;;;;;;;;;;;;;;;5.67;100.00;98134.28;4377328;32;19947;-76
2022/12/22 09:17:12;;;;;;;;;;;;;;;5.44;100.00;98146.69;4373058;32;19954;-76
2022/12/22 09:19:38;;;;;;;;;;;;;;;5.72;100.00;98150.38;4373475;32;19947;-74
2022/12/22 09:22:04;;;;;;;;;;;;;;;6.01;100.00;98145.03;4380544;32;19989;-75
2022/12/22 09:24:31;;;;;;;;;;;;;;;5.96;100.00;98152.94;4374646;32;19947;-75
2022/12/22 09:26:57;;;;;;;;;;;;;;;5.95;100.00;98143.28;4344795;33;19951;-76
2022/12/22 09:29:23;;;;;;;;;;;;;;;5.83;100.00;98132.69;4350296;33;19940;-77
2022/12/22 09:31:49;;;;;;;;;;;;;;;5.40;100.00;98118.84;4334771;33;19976;-76
2022/12/22 09:34:15;;;;;;;;;;;;;;;5.60;100.00;98128.25;4336246;33;19990;-76
2022/12/22 09:36:42;;;;;;;;;;;;;;;5.61;100.00;98111.19;4336027;33;19936;-76
2022/12/22 09:39:09;;;;;;;;;;;;;;;5.72;100.00;98094.28;4323461;33;20017;-77
2022/12/22 09:41:35;;;;;;;;;;;;;;;5.98;100.00;98092.91;4325904;33;20285;-77
2022/12/22 09:44:13;;;;;;;;;;;;;;;5.88;100.00;98089.22;4322352;33;20319;-77
2022/12/22 09:46:39;;;;;;;;;;;;;;;5.69;100.00;98077.94;4326094;33;19944;-74
2022/12/22 09:49:06;;;;;;;;;;;;;;;5.73;100.00;98063.88;4326003;33;19978;-75
2022/12/22 09:51:40;;;;;;;;;;;;;;;5.54;100.00;98067.81;4326468;33;19940;-75
2022/12/22 09:54:08;;;;;;;;;;;;;;;5.87;100.00;98058.19;4324753;33;20469;-75
2022/12/22 09:56:34;;;;;;;;;;;;;;;6.01;100.00;98054.19;4339360;33;19960;-74
2022/12/22 09:59:01;;;;;;;;;;;;;;;6.37;100.00;98052.06;4366208;32;19947;-73
2022/12/22 10:01:29;;;;;;;;;;;;;;;6.25;100.00;98043.31;4338549;33;20261;-73
2022/12/22 10:04:08;;;;;;;;;;;;;;;5.56;100.00;98050.50;4365284;32;19957;-74
2022/12/22 10:06:36;;;;;;;;;;;;;;;5.75;100.00;98031.59;4370617;32;19949;-74
2022/12/22 10:09:13;;;;;;;;;;;;;;;6.07;100.00;98031.84;4370113;32;20341;-74
2022/12/22 10:11:48;;;;;;;;;;;;;;;6.02;100.00;98029.09;4366979;32;20269;-73
2022/12/22 10:14:15;;;;;;;;;;;;;;;6.10;100.00;98034.00;4369363;32;19959;-73
2022/12/22 10:16:41;;;;;;;;;;;;;;;6.36;100.00;98042.41;4384974;32;19942;-74
2022/12/22 10:19:09;;;;;;;;;;;;;;;6.37;100.00;98042.16;4398542;32;20060;-74
2022/12/22 10:21:35;;;;;;;;;;;;;;;6.47;100.00;98040.69;4397870;32;20291;-74
2022/12/22 10:24:24;;;;;;;;;;;;;;;5.87;100.00;98029.66;4385457;32;20172;-74
2022/12/22 10:26:54;;;;;;;;;;;;;;;5.51;100.00;98029.06;4389601;32;19947;-73
2022/12/22 10:29:20;;;;;;;;;;;;;;;5.77;100.00;98021.44;4397246;32;19942;-74
2022/12/22 10:32:00;;;;;;;;;;;;;;;6.14;100.00;98005.75;4403632;32;19965;-73
2022/12/22 10:34:27;;;;;;;;;;;;;;;5.83;100.00;98005.25;4416991;32;19950;-73
2022/12/22 10:36:58;;;;;;;;;;;;;;;5.47;100.00;98003.87;4417307;32;19942;-73
2022/12/22 10:39:31;;;;;;;;;;;;;;;5.22;100.00;97988.25;4415827;32;19946;-73
2022/12/22 10:42:06;;;;;;;;;;;;;;;5.26;100.00;97989.37;4416697;32;19942;-73
2022/12/22 10:44:35;;;;;;;;;;;;;;;5.72;100.00;97987.47;4416607;32;20324;-73
2022/12/22 10:47:14;;;;;;;;;;;;;;;5.09;100.00;97987.50;4416005;32;19942;-75
2022/12/22 10:49:43;;;;;;;;;;;;;;;5.49;100.00;97995.63;4416360;32;19962;-74
2022/12/22 10:52:12;;;;;;;;;;;;;;;5.70;100.00;97989.56;4417111;32;20324;-74
2022/12/22 10:54:42;;;;;;;;;;;;;;;5.46;100.00;97989.72;4416723;32;20298;-74
2022/12/22 10:57:11;;;;;;;;;;;;;;;5.23;100.00;97990.69;4413574;32;20339;-73
2022/12/22 10:59:54;;;;;;;;;;;;;;;5.61;100.00;97985.69;4416465;32;20212;-72
2022/12/22 11:02:25;;;;;;;;;;;;;;;5.71;100.00;97980.53;4417004;32;19963;-74
2022/12/22 11:04:52;;;;;;;;;;;;;;;6.06;100.00;97971.41;4415162;32;19934;-74
2022/12/22 11:07:19;;;;;;;;;;;;;;;5.89;100.00;97970.59;4416711;32;19976;-74
2022/12/22 11:09:45;;;;;;;;;;;;;;;5.43;100.00;97974.19;4399535;32;19938;-74
2022/12/22 11:12:17;;;;;;;;;;;;;;;5.97;100.00;97967.56;4383494;32;19947;-74
2022/12/22 11:14:55;;;;;;;;;;;;;;;5.58;100.00;97962.94;4383602;32;19943;-74
2022/12/22 11:17:30;;;;;;;;;;;;;;;5.82;100.00;97949.41;4384512;32;20016;-74
2022/12/22 11:19:56;;;;;;;;;;;;;;;5.52;100.00;97955.09;4383935;32;19950;-74
2022/12/22 11:22:28;;;;;;;;;;;;;;;5.57;100.00;97952.53;4384274;32;19947;-74
2022/12/22 11:25:10;;;;;;;;;;;;;;;5.36;100.00;97940.69;4383588;32;19943;-74
2022/12/22 11:27:54;;;;;;;;;;;;;;;5.68;100.00;97932.94;4392797;32;19950;-74
2022/12/22 11:30:26;;;;;;;;;;;;;;;5.54;100.00;97948.47;4401263;32;20363;-74
2022/12/22 11:33:01;;;;;;;;;;;;;;;5.21;100.00;97911.91;4412641;32;19960;-74
2022/12/22 11:35:42;;;;;;;;;;;;;;;5.73;100.00;97941.00;4414363;32;19942;-74
2022/12/22 11:38:11;;;;;;;;;;;;;;;5.74;100.00;97947.94;4381740;32;20355;-74
2022/12/22 11:40:41;;;;;;;;;;;;;;;5.54;100.00;97942.31;4384111;32;20718;-75
2022/12/22 11:43:20;;;;;;;;;;;;;;;5.51;100.00;97937.47;4383295;32;19946;-74
2022/12/22 11:45:49;;;;;;;;;;;;;;;5.54;100.00;97937.00;4383464;32;19938;-74
2022/12/22 11:48:24;;;;;;;;;;;;;;;5.46;100.00;97941.66;4376954;32;19953;-74
2022/12/22 11:51:03;;;;;;;;;;;;;;;5.66;100.00;97935.00;4356294;32;20227;-74
2022/12/22 11:53:35;;;;;;;;;;;;;;;5.37;100.00;97932.44;4352801;32;20290;-74
2022/12/22 11:56:20;;;;;;;;;;;;;;;5.62;100.00;97939.25;4364644;32;20028;-75
2022/12/22 11:58:49;;;;;;;;;;;;;;;5.51;100.00;97937.47;4353350;32;19965;-76
2022/12/22 12:01:25;;;;;;;;;;;;;;;5.79;100.00;97929.34;4509930;27;20774;-75
2022/12/22 12:04:00;;;;;;;;;;;;;;;5.75;100.00;97922.88;4352710;32;20237;-76
2022/12/22 12:06:26;;;;;;;;;;;;;;;6.03;100.00;97928.34;4353843;32;19953;-76
2022/12/22 12:08:52;;;;;;;;;;;;;;;6.06;100.00;97917.97;4327546;33;20060;-75
2022/12/22 12:11:25;;;;;;;;;;;;;;;5.77;100.00;97915.41;4331514;33;20126;-76
2022/12/22 12:13:51;;;;;;;;;;;;;;;5.81;100.00;97905.84;4330235;33;19952;-76
2022/12/22 12:16:32;;;;;;;;;;;;;;;5.55;100.00;97919.91;4304191;33;20421;-76
2022/12/22 12:19:08;;;;;;;;;;;;;;;5.55;100.00;97912.72;4299683;33;19996;-74
2022/12/22 12:21:41;;;;;;;;;;;;;;;5.65;100.00;97906.72;4295388;33;20290;-75
2022/12/22 12:24:13;;;;;;;;;;;;;;;5.49;100.00;97907.50;4304280;33;19945;-75
2022/12/22 12:26:58;;;;;;;;;;;;;;;5.99;100.00;97914.69;4308007;33;19961;-75
2022/12/22 12:29:26;;;;;;;;;;;;;;;5.87;100.00;97904.09;4307907;33;20302;-75
2022/12/22 12:31:56;;;;;;;;;;;;;;;5.80;100.00;97904.22;4309732;33;19959;-76
2022/12/22 12:34:24;;;;;;;;;;;;;;;5.56;100.00;97894.81;4307162;33;19937;-76
2022/12/22 12:36:50;;;;;;;;;;;;;;;5.66;100.00;97886.94;4308574;33;20096;-76
2022/12/22 12:39:22;;;;;;;;;;;;;;;5.88;100.00;97878.16;4315697;33;19954;-75
2022/12/22 12:41:56;;;;;;;;;;;;;;;5.40;100.00;97883.91;4336902;33;19997;-77
2022/12/22 12:44:24;;;;;;;;;;;;;;;5.91;100.00;97883.81;4343836;33;20063;-73
2022/12/22 12:46:54;;;;;;;;;;;;;;;5.77;100.00;97878.00;4353559;32;19955;-75
2022/12/22 12:49:42;;;;;;;;;;;;;;;6.12;100.00;97868.88;4353024;33;19940;-76
2022/12/22 12:52:10;;;;;;;;;;;;;;;5.56;100.00;97876.13;4341063;33;19935;-76
2022/12/22 12:54:42;;;;;;;;;;;;;;;6.05;100.00;97865.59;4353331;33;19949;-77
2022/12/22 12:57:24;;;;;;;;;;;;;;;6.28;100.00;97861.03;4351527;33;19954;-75
2022/12/22 12:59:51;;;;;;;;;;;;;;;6.36;100.00;97858.72;4348457;33;19953;-74
2022/12/22 13:02:27;;;;;;;;;;;;;;;6.36;100.00;97852.56;4349836;32;20018;-75
2022/12/22 13:04:59;;;;;;;;;;;;;;;6.04;100.00;97855.94;4352044;33;19953;-75
2022/12/22 13:07:44;;;;;;;;;;;;;;;6.59;100.00;97854.16;4349966;33;20022;-74
2022/12/22 13:10:20;;;;;;;;;;;;;;;5.75;100.00;97857.97;4347982;33;19947;-73
2022/12/22 13:12:51;;;;;;;;;;;;;;;6.30;100.00;97857.06;4352278;32;20026;-73
2022/12/22 13:15:30;;;;;;;;;;;;;;;5.83;100.00;97854.84;4351638;32;19962;-74
2022/12/22 13:17:58;;;;;;;;;;;;;;;5.91;100.00;97853.63;4354112;32;19957;-73
2022/12/22 13:20:29;;;;;;;;;;;;;;;6.31;100.00;97847.97;4364499;32;19942;-74
2022/12/22 13:22:57;;;;;;;;;;;;;;;6.10;100.00;97852.28;4370625;32;21083;-73
2022/12/22 13:25:25;;;;;;;;;;;;;;;6.36;100.00;97847.22;4372494;32;19948;-74
2022/12/22 13:27:54;;;;;;;;;;;;;;;6.14;100.00;97845.41;4371898;32;20668;-74
2022/12/22 13:30:20;;;;;;;;;;;;;;;6.44;100.00;97844.09;4370286;32;20328;-74
2022/12/22 13:32:48;;;;;;;;;;;;;;;6.67;100.00;97837.66;4371307;32;19965;-73
2022/12/22 13:35:29;;;;;;;;;;;;;;;6.47;100.00;97838.25;4370811;32;19957;-73
2022/12/22 13:37:56;;;;;;;;;;;;;;;6.41;100.00;97833.09;4338704;33;19944;-75
2022/12/22 13:40:23;;;;;;;;;;;;;;;6.29;100.00;97834.06;4340510;33;19937;-75
2022/12/22 13:42:52;;;;;;;;;;;;;;;6.22;100.00;97835.31;4338660;33;19964;-74
2022/12/22 13:45:26;;;;;;;;;;;;;;;5.95;100.00;97830.69;4339153;33;19999;-74
2022/12/22 13:47:53;;;;;;;;;;;;;;;6.31;100.00;97823.13;4340110;33;19949;-74
2022/12/22 13:50:39;;;;;;;;;;;;;;;5.92;100.00;97834.69;4340229;33;19962;-74
2022/12/22 13:53:07;;;;;;;;;;;;;;;6.30;100.00;97827.66;4334068;33;19972;-74
2022/12/22 13:55:35;;;;;;;;;;;;;;;5.80;100.00;97833.97;4340833;33;19949;-74
2022/12/22 13:58:24;;;;;;;;;;;;;;;5.92;100.00;97831.19;4339865;33;20079;-74
2022/12/22 14:01:09;;;;;;;;;;;;;;;6.17;100.00;97834.22;4340742;33;19943;-74
2022/12/22 14:03:44;;;;;;;;;;;;;;;6.09;100.00;97829.28;4355229;32;19947;-74
2022/12/22 14:06:19;;;;;;;;;;;;;;;6.12;100.00;97836.00;4312342;33;20347;-76
2022/12/22 14:08:47;;;;;;;;;;;;;;;6.31;100.00;97826.59;4317407;33;19958;-73
2022/12/22 14:11:13;;;;;;;;;;;;;;;6.31;100.00;97828.47;4324824;33;19937;-75
2022/12/22 14:13:40;;;;;;;;;;;;;;;6.38;100.00;97826.38;4325059;33;20269;-73
2022/12/22 14:16:06;;;;;;;;;;;;;;;6.25;100.00;97824.13;4324016;33;19956;-75
2022/12/22 14:18:33;;;;;;;;;;;;;;;6.48;100.00;97818.47;4325820;33;19984;-75
2022/12/22 14:20:59;;;;;;;;;;;;;;;6.39;100.00;97825.34;4325170;33;19984;-74
2022/12/22 14:23:32;;;;;;;;;;;;;;;5.98;100.00;97819.53;4324354;33;20259;-75
2022/12/22 14:26:00;;;;;;;;;;;;;;;5.97;100.00;97817.94;4310148;33;20107;-74
2022/12/22 14:28:30;;;;;;;;;;;;;;;6.42;100.00;97816.00;4309758;33;19941;-76
2022/12/22 14:30:57;;;;;;;;;;;;;;;6.45;100.00;97802.94;4320071;33;20334;-74
2022/12/22 14:33:27;;;;;;;;;;;;;;;6.55;100.00;97805.69;4323221;33;19948;-74
2022/12/22 14:36:11;;;;;;;;;;;;;;;6.37;100.00;97800.72;4324731;33;20301;-74
2022/12/22 14:38:39;;;;;;;;;;;;;;;6.34;100.00;97795.88;4338306;33;19956;-75
2022/12/22 14:41:39;;;;;;;;;;;;;;;6.06;100.00;97789.69;4339439;33;19940;-73
2022/12/22 14:43:57;;;;;;;;;;;;;;;6.02;100.00;97788.59;4332783;32;19956;-75
2022/12/22 14:46:23;;;;;;;;;;;;;;;5.95;100.00;97786.09;4333691;32;19940;-75
2022/12/22 14:48:50;;;;;;;;;;;;;;;6.11;100.00;97787.09;4334659;32;19970;-74
2022/12/22 14:51:17;;;;;;;;;;;;;;;5.99;100.00;97787.22;4339408;32;19998;-74
2022/12/22 14:53:51;;;;;;;;;;;;;;;6.25;100.00;97781.34;4334045;33;19969;-75
2022/12/22 14:56:22;;;;;;;;;;;;;;;6.21;100.00;97781.06;4336745;33;19974;-76
2022/12/22 14:59:08;;;;;;;;;;;;;;;6.44;100.00;97779.12;4354587;32;19947;-75
2022/12/22 15:01:55;;;;;;;;;;;;;;;6.32;100.00;97782.75;4378184;32;20263;-75
2022/12/22 15:04:25;;;;;;;;;;;;;;;6.31;100.00;97783.81;4381749;32;19943;-74
2022/12/22 15:07:04;;;;;;;;;;;;;;;6.45;100.00;97775.41;4381263;32;19955;-73
2022/12/22 15:09:33;;;;;;;;;;;;;;;6.58;100.00;97780.31;4352038;32;19954;-75
2022/12/22 15:12:12;;;;;;;;;;;;;;;6.37;100.00;97780.12;4352002;32;19944;-75
2022/12/22 15:14:46;;;;;;;;;;;;;;;6.31;100.00;97781.13;4349608;32;19948;-74
2022/12/22 15:17:20;;;;;;;;;;;;;;;6.25;100.00;97778.66;4340348;33;19973;-75
2022/12/22 15:19:47;;;;;;;;;;;;;;;6.46;100.00;97779.66;4339479;32;20412;-75
2022/12/22 15:22:15;;;;;;;;;;;;;;;6.76;100.00;97779.12;4338727;32;19940;-74
2022/12/22 15:24:43;;;;;;;;;;;;;;;6.59;100.00;97781.13;4330365;32;19944;-74
2022/12/22 15:27:10;;;;;;;;;;;;;;;6.75;100.00;97777.53;4338868;32;19939;-76
2022/12/22 15:29:36;;;;;;;;;;;;;;;6.66;100.00;97781.72;4337431;33;19952;-75
2022/12/22 15:32:02;;;;;;;;;;;;;;;6.26;100.00;97777.63;4338919;33;19952;-75
2022/12/22 15:34:30;;;;;;;;;;;;;;;6.30;100.00;97768.03;4337346;33;19942;-74
2022/12/22 15:36:57;;;;;;;;;;;;;;;6.49;100.00;97773.81;4337455;32;19964;-75
2022/12/22 15:39:23;;;;;;;;;;;;;;;6.78;100.00;97774.34;4337996;33;19952;-76
2022/12/22 15:41:49;;;;;;;;;;;;;;;6.97;100.00;97768.56;4352144;32;19947;-74
2022/12/22 15:44:16;;;;;;;;;;;;;;;6.72;100.00;97776.16;4350837;32;19947;-75
2022/12/22 15:46:43;;;;;;;;;;;;;;;6.79;100.00;97767.91;4350604;32;20022;-75
2022/12/22 15:49:18;;;;;;;;;;;;;;;6.86;100.00;97765.84;4351694;32;19966;-74
2022/12/22 15:51:46;;;;;;;;;;;;;;;6.81;100.00;97776.50;4337392;33;20329;-73
2022/12/22 15:54:14;;;;;;;;;;;;;;;7.00;100.00;97770.75;4345152;32;20144;-74
2022/12/22 15:56:49;;;;;;;;;;;;;;;6.94;100.00;97774.44;4366116;32;20215;-75
2022/12/22 15:59:17;;;;;;;;;;;;;;;6.45;100.00;97776.19;4357430;32;19951;-75
2022/12/22 16:01:43;;;;;;;;;;;;;;;6.97;100.00;97771.25;4352519;32;19978;-75
2022/12/22 16:04:09;;;;;;;;;;;;;;;6.76;100.00;97768.44;4355766;32;19939;-75
2022/12/22 16:06:36;;;;;;;;;;;;;;;6.51;100.00;97769.84;4339409;32;19962;-74
2022/12/22 16:09:05;;;;;;;;;;;;;;;6.61;100.00;97763.78;4353453;32;20034;-74
2022/12/22 16:11:31;;;;;;;;;;;;;;;6.58;100.00;97760.81;4352505;32;19944;-75
2022/12/22 16:13:59;;;;;;;;;;;;;;;6.82;100.00;97753.22;4354858;32;19990;-74
2022/12/22 16:16:25;;;;;;;;;;;;;;;6.33;100.00;97760.31;4339269;32;19958;-76
2022/12/22 16:18:52;;;;;;;;;;;;;;;6.73;100.00;97760.91;4334954;33;19961;-76